Time;durP1;ratioP1;P1;durP2;ratioP2;P2;SDS_P1;SDS_P2;PMS_P1;PMS_P2;Temp;Humidity;BMP_temperature;BMP_pressure;BME280_temperature;BME280_humidity;BME280_pressure;Samples;Min_cycle;Max_cycle;Signal;HPM_P1;HPM_P2
2020/12/28 06:55:24;;;;;;;2.50;0.98;;;;;;;6.44;67.43;96327.72;3821828;23;20348;-77
2020/12/28 06:57:01;;;;;;;2.00;0.63;;;;;;;6.42;67.40;96330.59;3810579;23;20029;-76
2020/12/28 06:58:33;;;;;;;2.05;0.80;;;;;;;6.45;67.39;96321.38;3815505;23;20025;-77
2020/12/28 07:00:06;;;;;;;0.85;0.47;;;;;;;6.48;67.28;96318.31;3829045;23;20028;-78
2020/12/28 07:01:43;;;;;;;1.30;0.55;;;;;;;6.46;67.51;96323.84;3835448;23;20478;-77
2020/12/28 07:03:16;;;;;;;2.25;0.60;;;;;;;6.49;67.50;96314.66;3831308;23;20029;-76
2020/12/28 07:04:48;;;;;;;3.28;0.73;;;;;;;6.52;67.42;96322.16;3836114;23;20031;-76
2020/12/28 07:06:21;;;;;;;1.00;0.40;;;;;;;6.52;67.25;96323.00;3833645;23;20017;-76
2020/12/28 07:07:54;;;;;;;1.52;0.50;;;;;;;6.60;67.05;96315.81;3833096;23;20061;-76
2020/12/28 07:09:26;;;;;;;1.48;0.52;;;;;;;6.65;66.87;96310.72;3833349;23;20099;-77
2020/12/28 07:10:59;;;;;;;2.70;0.50;;;;;;;6.65;66.93;96316.81;3835819;23;20100;-77
2020/12/28 07:12:32;;;;;;;3.58;1.00;;;;;;;6.64;66.98;96320.50;3833499;23;20028;-77
2020/12/28 07:14:04;;;;;;;2.25;0.65;;;;;;;6.63;66.91;96316.22;3835765;23;20024;-77
2020/12/28 07:15:36;;;;;;;2.03;0.60;;;;;;;6.68;66.96;96315.56;3830767;23;20393;-80
2020/12/28 07:17:09;;;;;;;1.95;0.68;;;;;;;6.69;66.98;96322.50;3838286;23;20489;-80
2020/12/28 07:18:50;;;;;;;4.45;0.90;;;;;;;6.70;66.77;96319.66;3835647;23;20072;-78
2020/12/28 07:20:22;;;;;;;2.45;0.60;;;;;;;6.69;67.11;96326.00;3839806;23;20025;-79
2020/12/28 07:26:56;;;;;;;1.13;0.40;;;;;;;6.75;67.06;96310.25;3840739;23;20020;-79
2020/12/28 07:28:29;;;;;;;3.80;1.13;;;;;;;6.73;67.00;96313.13;3813598;23;20027;-79
2020/12/28 07:30:07;;;;;;;2.28;1.08;;;;;;;6.72;67.22;96328.22;3812888;23;20096;-80
2020/12/28 07:33:45;;;;;;;2.65;0.50;;;;;;;6.61;68.06;96331.56;3820127;23;20017;-78
2020/12/28 07:35:20;;;;;;;2.58;0.70;;;;;;;6.58;68.20;96331.13;3838859;23;20056;-79
2020/12/28 07:36:53;;;;;;;3.08;0.57;;;;;;;6.67;68.16;96329.88;3829821;23;20406;-79
2020/12/28 07:38:34;;;;;;;1.42;0.40;;;;;;;6.69;67.97;96326.00;3838200;23;20036;-78
2020/12/28 07:40:09;;;;;;;2.35;0.60;;;;;;;6.61;68.36;96328.91;3830707;23;20705;-76
2020/12/28 07:41:49;;;;;;;2.50;0.70;;;;;;;6.65;67.98;96327.44;3837868;23;20108;-77
2020/12/28 07:43:38;;;;;;;1.77;0.73;;;;;;;6.60;68.46;96326.44;3829988;23;20025;-77
2020/12/28 07:45:20;;;;;;;3.38;1.13;;;;;;;6.61;68.44;96326.25;3828934;23;20031;-76
2020/12/28 07:47:02;;;;;;;2.00;0.60;;;;;;;6.52;68.56;96312.38;3838704;23;20025;-76
2020/12/28 07:50:37;;;;;;;3.08;0.85;;;;;;;6.52;68.73;96312.38;3837110;23;20596;-77
2020/12/28 07:55:52;;;;;;;2.40;0.70;;;;;;;6.49;69.24;96322.59;3845468;22;20822;-76
2020/12/28 07:58:01;;;;;;;2.67;0.88;;;;;;;6.47;69.43;96325.44;3831952;22;20028;-76
2020/12/28 08:00:06;;;;;;;2.78;0.80;;;;;;;6.45;69.60;96321.38;3839024;23;20017;-77
2020/12/28 08:10:25;;;;;;;1.88;0.70;;;;;;;6.46;69.94;96325.66;3843964;22;20039;-75
2020/12/28 08:12:10;;;;;;;1.17;0.50;;;;;;;6.35;70.23;96313.88;3856894;23;20025;-75
2020/12/28 08:13:44;;;;;;;3.28;0.90;;;;;;;6.40;70.47;96314.06;3855942;23;20024;-75
2020/12/28 08:15:24;;;;;;;3.47;0.85;;;;;;;6.44;70.43;96325.06;3858040;23;20031;-76
2020/12/28 08:17:11;;;;;;;2.63;0.80;;;;;;;6.40;70.52;96320.19;3856498;23;20021;-77
2020/12/28 08:18:51;;;;;;;2.90;0.93;;;;;;;6.40;70.63;96324.66;3849922;23;20025;-76
2020/12/28 08:20:36;;;;;;;2.70;0.88;;;;;;;6.23;71.40;96325.13;3847908;23;20361;-76
2020/12/28 08:22:24;;;;;;;1.70;0.60;;;;;;;6.33;71.18;96319.38;3839339;23;20107;-75
2020/12/28 08:24:22;;;;;;;2.35;0.75;;;;;;;6.35;71.24;96332.44;3839580;23;20024;-75
2020/12/28 08:25:58;;;;;;;2.67;0.80;;;;;;;6.37;71.09;96325.09;3858169;23;20032;-76
2020/12/28 08:27:47;;;;;;;1.92;0.70;;;;;;;6.39;71.02;96323.88;3849843;23;20086;-76
2020/12/28 08:29:38;;;;;;;2.45;0.88;;;;;;;6.29;72.02;96323.47;3848058;23;20025;-75
2020/12/28 08:31:27;;;;;;;1.77;0.73;;;;;;;6.35;71.55;96327.94;3857678;23;20020;-77
2020/12/28 08:33:08;;;;;;;2.92;0.80;;;;;;;6.40;71.33;96314.88;3841751;23;20029;-75
2020/12/28 08:35:00;;;;;;;4.97;1.15;;;;;;;6.42;71.25;96317.31;3839200;23;20051;-77
2020/12/28 08:36:50;;;;;;;2.25;0.80;;;;;;;6.41;71.15;96321.00;3848743;23;20029;-75
2020/12/28 08:38:41;;;;;;;2.78;1.05;;;;;;;6.40;71.16;96324.66;3851497;23;20028;-77
2020/12/28 08:40:20;;;;;;;1.70;0.65;;;;;;;6.36;71.01;96300.41;3857700;23;20035;-75
2020/12/28 08:48:48;;;;;;;2.65;0.85;;;;;;;6.47;71.46;96303.41;3840213;22;19907;-77
2020/12/28 08:50:36;;;;;;;1.98;0.68;;;;;;;6.53;71.18;96310.53;3839801;23;20032;-76
2020/12/28 08:52:08;;;;;;;3.30;0.70;;;;;;;6.53;71.07;96297.25;3848248;23;20028;-77
2020/12/28 08:53:45;;;;;;;2.20;0.90;;;;;;;6.57;71.04;96306.44;3835586;23;20081;-76
2020/12/28 08:55:19;;;;;;;2.13;0.80;;;;;;;6.55;70.94;96292.56;3832624;23;20044;-76
2020/12/28 08:57:18;;;;;;;2.25;0.80;;;;;;;6.49;71.37;96290.75;3828724;23;20028;-77
2020/12/28 08:59:03;;;;;;;2.13;0.70;;;;;;;6.56;70.90;96313.56;3851128;23;20025;-79
2020/12/28 09:00:35;;;;;;;2.65;0.88;;;;;;;6.60;71.04;96308.69;3820495;23;20032;-80
2020/12/28 09:15:28;;;;;;;2.38;0.90;;;;;;;6.48;71.52;96311.16;3841538;22;20039;-81
2020/12/28 09:17:07;;;;;;;2.63;0.90;;;;;;;6.50;71.67;96321.59;3848317;23;20023;-77
2020/12/28 09:19:07;;;;;;;2.83;0.80;;;;;;;6.52;71.51;96311.56;3842304;22;20024;-76
2020/12/28 09:21:04;;;;;;;3.55;1.10;;;;;;;6.48;71.95;96321.78;3834844;23;20017;-78
2020/12/28 09:27:36;;;;;;;4.32;1.20;;;;;;;6.47;72.11;96329.94;3823871;23;20018;-78
2020/12/28 09:29:14;;;;;;;1.63;0.80;;;;;;;6.49;72.10;96339.31;3822321;23;20022;-77
2020/12/28 09:30:50;;;;;;;2.80;0.93;;;;;;;6.48;72.04;96342.19;3832739;23;20370;-78
2020/12/28 09:34:16;;;;;;;2.05;0.70;;;;;;;6.43;72.53;96352.59;3839023;23;20028;-78
2020/12/28 09:35:48;;;;;;;2.88;0.98;;;;;;;6.35;72.79;96335.91;3833387;22;20028;-76
2020/12/28 09:37:20;;;;;;;2.55;0.80;;;;;;;6.30;72.99;96346.34;3838494;23;20450;-77
2020/12/28 09:38:51;;;;;;;2.25;0.90;;;;;;;6.33;73.01;96345.91;3832900;23;20466;-76
2020/12/28 09:40:28;;;;;;;2.03;0.80;;;;;;;6.36;73.18;96353.47;3839636;23;20021;-78
2020/12/28 09:42:06;;;;;;;2.55;0.90;;;;;;;6.25;73.57;96340.81;3830294;23;20043;-75
2020/12/28 09:43:39;;;;;;;2.65;1.00;;;;;;;6.26;74.21;96347.75;3840019;23;20021;-76
2020/12/28 09:46:58;;;;;;;2.25;0.70;;;;;;;6.27;73.95;96330.81;3839074;23;20024;-77
2020/12/28 09:48:31;;;;;;;1.80;0.82;;;;;;;6.28;73.81;96324.50;3830825;23;20028;-77
2020/12/28 09:50:03;;;;;;;2.38;0.68;;;;;;;6.26;73.81;96325.75;3840395;23;20025;-75
2020/12/28 09:51:45;;;;;;;1.67;0.60;;;;;;;6.31;74.03;96342.66;3833267;23;20029;-76
2020/12/28 09:53:26;;;;;;;2.75;0.95;;;;;;;6.30;74.28;96346.34;3834745;23;20052;-76
2020/12/28 09:54:58;;;;;;;4.10;0.77;;;;;;;6.24;74.16;96337.38;3840435;23;20025;-76
2020/12/28 09:56:32;;;;;;;2.90;1.33;;;;;;;6.33;74.84;96340.59;3833998;23;20025;-78
2020/12/28 09:58:03;;;;;;;1.95;0.70;;;;;;;6.20;74.12;96330.03;3839335;23;20031;-76
2020/12/28 09:59:39;;;;;;;2.50;0.70;;;;;;;6.14;74.36;96314.97;3832887;23;20357;-76
2020/12/28 10:01:24;;;;;;;1.85;0.63;;;;;;;6.24;74.64;96308.19;3839770;23;20021;-76
2020/12/28 10:03:03;;;;;;;4.88;1.50;;;;;;;6.27;74.57;96306.16;3833115;23;20032;-76
2020/12/28 10:04:39;;;;;;;3.42;1.17;;;;;;;6.29;74.39;96312.88;3839305;23;20104;-77
2020/12/28 10:06:33;;;;;;;4.93;1.33;;;;;;;6.28;74.60;96321.06;3813785;23;20028;-75
2020/12/28 10:08:06;;;;;;;3.88;1.45;;;;;;;6.24;74.56;96304.72;3839789;23;20462;-76
2020/12/28 10:09:47;;;;;;;2.95;0.80;;;;;;;6.32;74.69;96309.81;3832249;23;20028;-76
2020/12/28 10:11:20;;;;;;;6.22;1.20;;;;;;;6.28;74.58;96305.94;3834586;23;20187;-76
2020/12/28 10:12:52;;;;;;;3.85;1.30;;;;;;;6.22;74.58;96296.16;3839488;23;20021;-76
2020/12/28 10:14:23;;;;;;;4.95;1.75;;;;;;;6.24;74.66;96292.28;3836882;23;20021;-77
2020/12/28 10:15:54;;;;;;;3.20;1.23;;;;;;;6.29;74.64;96302.25;3838459;23;20025;-79
2020/12/28 10:17:26;;;;;;;4.18;1.50;;;;;;;6.31;74.53;96294.09;3831038;23;20025;-79
2020/12/28 10:18:59;;;;;;;3.35;1.40;;;;;;;6.31;74.61;96300.22;3839844;23;20021;-76
2020/12/28 10:20:29;;;;;;;3.88;1.30;;;;;;;6.29;74.52;96282.88;3835139;23;20025;-76
2020/12/28 10:22:01;;;;;;;2.60;1.10;;;;;;;6.32;74.42;96282.44;3839561;23;20095;-77
2020/12/28 10:23:33;;;;;;;4.03;1.17;;;;;;;6.28;74.32;96274.09;3831351;23;20025;-77
2020/12/28 10:25:10;;;;;;;3.05;1.00;;;;;;;6.21;74.44;96275.97;3838738;23;20108;-80
2020/12/28 10:26:52;;;;;;;3.75;1.20;;;;;;;6.26;74.46;96273.50;3831199;23;20032;-79
2020/12/28 10:28:30;;;;;;;2.78;0.95;;;;;;;6.36;74.24;96265.91;3840114;23;20397;-79
2020/12/28 10:30:01;;;;;;;2.90;1.10;;;;;;;6.30;74.28;96264.09;3834058;23;20017;-77
2020/12/28 10:31:33;;;;;;;2.80;1.00;;;;;;;6.35;74.30;96258.16;3840764;23;20075;-80
2020/12/28 10:33:04;;;;;;;2.58;0.93;;;;;;;6.37;74.24;96254.28;3830208;23;20021;-78
2020/12/28 10:34:36;;;;;;;3.35;1.35;;;;;;;6.47;74.06;96260.97;3839536;23;20210;-77
2020/12/28 10:37:10;;;;;;;3.40;1.50;;;;;;;6.37;74.27;96256.94;3832580;23;20021;-76
2020/12/28 10:38:50;;;;;;;5.22;1.55;;;;;;;6.38;74.00;96261.22;3831274;23;20027;-76
2020/12/28 10:40:26;;;;;;;3.83;1.58;;;;;;;6.44;74.15;96261.38;3840169;23;20079;-78
2020/12/28 10:42:07;;;;;;;4.50;1.48;;;;;;;6.49;73.59;96259.72;3833541;23;20036;-76
2020/12/28 10:43:40;;;;;;;3.75;1.30;;;;;;;6.47;73.71;96258.31;3840500;23;20025;-76
2020/12/28 10:45:21;;;;;;;2.63;1.02;;;;;;;6.44;73.27;96256.91;3831809;23;20021;-76
2020/12/28 10:46:52;;;;;;;2.83;0.95;;;;;;;6.43;73.41;96249.13;3840558;23;20028;-78
2020/12/28 10:48:28;;;;;;;3.22;0.90;;;;;;;6.46;73.06;96254.84;3834080;23;20025;-77
2020/12/28 10:50:01;;;;;;;2.85;1.17;;;;;;;6.49;73.14;96257.06;3841590;23;20025;-76
2020/12/28 10:51:43;;;;;;;2.30;0.80;;;;;;;6.53;72.91;96255.63;3837434;23;20025;-75
2020/12/28 10:53:18;;;;;;;2.60;0.82;;;;;;;6.56;72.47;96246.44;3840224;23;20017;-77
2020/12/28 10:54:50;;;;;;;2.25;0.93;;;;;;;6.58;72.83;96260.31;3840207;23;20028;-77
2020/12/28 10:56:27;;;;;;;5.88;1.77;;;;;;;6.62;72.62;96256.19;3838339;23;20021;-77
2020/12/28 10:57:58;;;;;;;4.03;1.27;;;;;;;6.69;72.40;96264.13;3840228;23;20028;-75
2020/12/28 10:59:30;;;;;;;2.67;0.80;;;;;;;6.69;72.30;96256.16;3838899;23;20055;-76
2020/12/28 11:01:01;;;;;;;2.60;0.90;;;;;;;6.67;72.17;96256.38;3839462;23;20021;-77
2020/12/28 11:02:33;;;;;;;3.65;1.15;;;;;;;6.67;72.50;96251.06;3834968;22;20453;-76
2020/12/28 11:04:05;;;;;;;3.35;1.13;;;;;;;6.67;72.00;96258.19;3839188;23;20033;-76
2020/12/28 11:05:37;;;;;;;2.70;1.20;;;;;;;6.65;71.99;96253.13;3831248;23;20024;-75
2020/12/28 11:07:10;;;;;;;3.40;1.33;;;;;;;6.69;71.86;96246.38;3839021;23;20024;-77
2020/12/28 11:08:49;;;;;;;2.35;0.85;;;;;;;6.77;71.73;96250.59;3832288;23;20469;-79
2020/12/28 11:10:21;;;;;;;2.65;1.00;;;;;;;6.82;71.56;96255.25;3842448;23;20021;-78
2020/12/28 11:12:04;;;;;;;2.78;1.02;;;;;;;6.79;71.64;96247.75;3832515;23;20087;-77
2020/12/28 11:13:37;;;;;;;3.67;1.15;;;;;;;6.75;71.73;96242.06;3839302;23;20049;-78
2020/12/28 11:15:09;;;;;;;3.60;1.23;;;;;;;6.77;71.76;96239.16;3835310;23;20103;-77
2020/12/28 11:16:41;;;;;;;3.65;1.08;;;;;;;6.72;72.11;96245.13;3839736;23;20021;-77
2020/12/28 11:18:13;;;;;;;3.80;0.93;;;;;;;6.84;71.73;96245.25;3831885;23;20366;-77
2020/12/28 11:19:49;;;;;;;4.55;1.20;;;;;;;6.86;71.77;96232.59;3839782;23;20021;-78
2020/12/28 11:21:27;;;;;;;3.60;1.23;;;;;;;6.91;71.77;96229.28;3831586;23;20350;-77
2020/12/28 11:22:59;;;;;;;2.83;1.10;;;;;;;6.88;71.52;96214.59;3841041;23;20083;-80
2020/12/28 11:26:52;;;;;;;3.60;1.33;;;;;;;6.90;71.55;96211.72;3743894;23;20026;-80
2020/12/28 11:28:26;;;;;;;4.07;1.63;;;;;;;6.89;71.12;96215.41;3839180;23;20025;-80
2020/12/28 11:29:58;;;;;;;3.58;1.27;;;;;;;6.82;71.37;96205.66;3833044;23;20021;-80
2020/12/28 11:33:12;;;;;;;4.05;1.63;;;;;;;6.81;71.24;96204.03;3832699;22;20029;-81
2020/12/28 11:34:45;;;;;;;4.03;1.40;;;;;;;6.72;70.89;96197.34;3838887;23;20471;-78
2020/12/28 11:36:19;;;;;;;3.28;1.25;;;;;;;6.75;70.59;96198.75;3832586;23;20032;-77
2020/12/28 11:37:52;;;;;;;3.65;1.50;;;;;;;6.74;70.71;96191.81;3839452;23;20057;-79
2020/12/28 11:39:23;;;;;;;4.38;1.52;;;;;;;6.82;70.51;96192.38;3831155;23;20025;-80
2020/12/28 11:40:55;;;;;;;3.80;1.45;;;;;;;6.82;70.20;96194.19;3840790;23;20025;-79
2020/12/28 11:42:45;;;;;;;3.40;1.38;;;;;;;6.83;70.18;96190.53;3830606;23;20392;-79
2020/12/28 11:44:25;;;;;;;4.25;1.60;;;;;;;6.88;70.11;96196.03;3838156;23;20052;-80
2020/12/28 11:45:58;;;;;;;3.05;1.40;;;;;;;6.91;70.16;96189.47;3839335;23;20052;-79
2020/12/28 11:47:37;;;;;;;3.53;1.45;;;;;;;6.91;69.91;96171.66;3819031;23;20028;-81
2020/12/28 11:49:08;;;;;;;3.75;1.50;;;;;;;6.97;70.04;96176.13;3839907;23;20053;-76
2020/12/28 11:50:40;;;;;;;3.45;1.50;;;;;;;6.94;70.05;96176.56;3834014;23;20041;-76
2020/12/28 11:58:03;;;;;;;2.83;1.23;;;;;;;7.00;69.37;96180.19;3830440;22;20056;-78
2020/12/28 11:59:35;;;;;;;3.25;1.35;;;;;;;7.06;69.61;96176.66;3835070;23;27541;-77
2020/12/28 12:01:12;;;;;;;2.03;1.00;;;;;;;7.03;69.18;96175.25;3839940;23;20017;-77
2020/12/28 12:02:58;;;;;;;2.25;0.95;;;;;;;7.07;69.43;96174.84;3833868;23;20044;-77
2020/12/28 12:04:50;;;;;;;4.47;1.30;;;;;;;7.11;69.39;96173.34;3841417;23;20029;-76
2020/12/28 12:07:08;;;;;;;4.25;1.35;;;;;;;7.16;69.18;96173.53;3836584;23;20028;-77
2020/12/28 12:09:09;;;;;;;3.33;1.20;;;;;;;7.21;69.30;96178.19;3836399;23;20020;-77
2020/12/28 12:10:39;;;;;;;3.47;1.55;;;;;;;7.25;68.79;96163.41;3840848;23;20021;-77
2020/12/28 12:12:30;;;;;;;4.65;2.15;;;;;;;7.26;69.06;96160.56;3832688;23;20033;-78
2020/12/28 12:14:11;;;;;;;;;;;;;;;7.25;69.56;96164.25;3841022;23;20021;-77
2020/12/28 12:15:47;;;;;;;3.40;1.38;;;;;;;7.32;68.75;96159.69;3835507;23;19916;-77
2020/12/28 12:17:18;;;;;;;3.00;1.35;;;;;;;7.25;68.94;96163.41;3833408;23;20051;-77
2020/12/28 12:18:53;;;;;;;3.55;1.30;;;;;;;7.30;68.83;96172.38;3840555;23;20485;-76
2020/12/28 12:20:27;;;;;;;4.47;1.98;;;;;;;7.24;69.05;96181.22;3833221;23;20096;-77
2020/12/28 12:21:59;;;;;;;4.40;1.90;;;;;;;7.21;68.95;96188.81;3840881;23;20458;-77
2020/12/28 12:23:46;;;;;;;3.40;1.40;;;;;;;7.28;68.71;96193.03;3835401;23;20060;-78
2020/12/28 12:25:33;;;;;;;3.25;1.38;;;;;;;7.32;68.73;96193.41;3840437;23;20458;-76
2020/12/28 12:27:10;;;;;;;5.80;1.52;;;;;;;7.23;68.86;96189.38;3831879;23;20021;-78
2020/12/28 12:28:47;;;;;;;3.15;1.35;;;;;;;7.33;68.76;96195.84;3840542;23;20021;-77
2020/12/28 12:30:18;;;;;;;3.38;1.30;;;;;;;7.39;68.92;96188.03;3836633;23;20029;-77
2020/12/28 12:40:41;;;;;;;2.88;1.40;;;;;;;7.39;69.25;96219.91;3840108;22;20013;-76
2020/12/28 12:44:10;;;;;;;5.75;1.60;;;;;;;7.52;68.86;96213.66;3849564;23;20427;-77
2020/12/28 12:45:41;;;;;;;4.85;1.98;;;;;;;7.47;69.00;96212.47;3835165;23;20025;-78
2020/12/28 12:47:13;;;;;;;4.65;1.80;;;;;;;7.47;68.85;96211.66;3841550;23;20053;-76
2020/12/28 12:48:45;;;;;;;3.83;1.88;;;;;;;7.45;68.67;96219.06;3831827;23;20020;-76
2020/12/28 12:50:17;;;;;;;6.97;2.03;;;;;;;7.43;68.61;96213.94;3832266;23;20343;-78
2020/12/28 12:52:12;;;;;;;3.50;1.52;;;;;;;7.17;69.01;96218.47;3839003;23;20067;-76
2020/12/28 12:53:56;;;;;;;4.72;1.80;;;;;;;7.18;69.03;96236.03;3830282;23;20104;-77
2020/12/28 12:55:28;;;;;;;4.18;1.95;;;;;;;7.16;69.48;96231.97;3838977;23;20052;-76
2020/12/28 12:56:59;;;;;;;3.88;1.85;;;;;;;7.23;69.25;96223.91;3833372;23;20406;-76
2020/12/28 12:58:32;;;;;;;7.22;2.63;;;;;;;7.15;69.52;96225.03;3838607;23;20366;-76
2020/12/28 13:00:17;;;;;;;6.00;2.03;;;;;;;7.16;70.01;96232.75;3830460;23;20021;-76
2020/12/28 13:01:52;;;;;;;3.88;1.85;;;;;;;7.12;69.97;96236.06;3838591;23;20028;-77
2020/12/28 13:03:23;;;;;;;4.78;2.00;;;;;;;7.15;70.13;96238.31;3836014;23;20091;-75
2020/12/28 13:04:54;;;;;;;4.47;2.17;;;;;;;7.13;70.43;96237.69;3838849;23;20021;-75
2020/12/28 13:06:27;;;;;;;4.57;2.13;;;;;;;7.10;70.65;96235.47;3833356;23;20032;-74
2020/12/28 13:07:59;;;;;;;6.78;2.70;;;;;;;7.08;70.84;96245.50;3838920;23;20025;-75
2020/12/28 13:09:32;;;;;;;3.67;1.60;;;;;;;7.10;71.10;96241.59;3827801;23;20338;-76
2020/12/28 13:11:06;;;;;;;3.47;1.65;;;;;;;7.07;71.33;96239.38;3838548;23;20021;-76
2020/12/28 13:12:39;;;;;;;4.40;1.95;;;;;;;7.15;71.30;96248.94;3834576;23;20484;-77
2020/12/28 13:14:10;;;;;;;5.95;2.13;;;;;;;7.09;71.62;96249.78;3837065;23;20017;-76
2020/12/28 13:15:45;;;;;;;4.57;2.17;;;;;;;7.03;71.83;96238.19;3835402;23;20025;-74
2020/12/28 13:17:17;;;;;;;5.55;2.03;;;;;;;7.02;71.74;96237.38;3835091;23;20028;-75
2020/12/28 13:18:48;;;;;;;4.15;1.70;;;;;;;7.06;71.61;96236.94;3837979;23;20025;-82
2020/12/28 13:20:21;;;;;;;5.60;2.15;;;;;;;7.04;72.00;96234.47;3842513;23;20021;-79
2020/12/28 13:21:53;;;;;;;4.13;1.77;;;;;;;7.06;71.67;96248.38;3838954;23;20080;-77
2020/12/28 13:23:32;;;;;;;5.47;2.13;;;;;;;7.09;71.51;96241.81;3836761;23;20403;-78
2020/12/28 13:25:14;;;;;;;4.32;1.80;;;;;;;7.05;71.33;96240.63;3838838;23;20025;-76
2020/12/28 13:26:45;;;;;;;3.80;1.88;;;;;;;6.94;71.43;96236.81;3836798;23;20021;-77
2020/12/28 13:28:18;;;;;;;4.03;1.80;;;;;;;7.00;71.16;96239.41;3838694;23;20025;-76
2020/12/28 13:29:50;;;;;;;8.07;2.85;;;;;;;6.99;71.28;96235.13;3836436;23;20029;-76
2020/12/28 13:31:22;;;;;;;4.32;2.05;;;;;;;7.03;71.04;96238.19;3838926;23;20025;-76
2020/12/28 13:32:55;;;;;;;3.88;1.88;;;;;;;6.99;71.19;96240.44;3836557;23;20044;-75
2020/12/28 13:34:37;;;;;;;4.07;2.22;;;;;;;6.91;71.26;96240.69;3839354;23;20020;-76
2020/12/28 13:36:18;;;;;;;5.72;1.80;;;;;;;6.79;70.33;96247.75;3835439;23;20025;-76
2020/12/28 13:38:04;;;;;;;4.80;1.98;;;;;;;6.72;70.78;96253.09;3839619;23;20079;-76
2020/12/28 13:39:35;;;;;;;4.20;1.75;;;;;;;6.70;71.19;96255.97;3836265;23;20058;-75
2020/12/28 13:41:06;;;;;;;4.45;1.80;;;;;;;6.74;71.29;96252.88;3838410;23;20029;-77
2020/12/28 13:42:39;;;;;;;4.60;1.70;;;;;;;6.77;71.17;96260.41;3836883;23;20021;-76
2020/12/28 13:44:11;;;;;;;5.35;2.13;;;;;;;6.80;71.38;96254.69;3839216;23;20024;-76
2020/12/28 13:45:43;;;;;;;3.58;1.50;;;;;;;6.82;71.02;96252.59;3836954;23;20028;-78
2020/12/28 13:47:37;;;;;;;4.13;1.90;;;;;;;6.72;71.23;96253.88;3839443;23;20044;-77
2020/12/28 13:49:11;;;;;;;4.55;1.90;;;;;;;6.74;71.01;96244.91;3837277;23;20081;-76
2020/12/28 13:50:42;;;;;;;5.00;1.50;;;;;;;6.74;71.22;96251.03;3838115;23;20039;-77
2020/12/28 13:52:19;;;;;;;6.05;1.80;;;;;;;6.75;71.47;96254.50;3839849;23;20083;-79
2020/12/28 13:53:58;;;;;;;4.78;1.80;;;;;;;6.75;71.48;96262.47;3837505;23;20021;-77
2020/12/28 13:55:41;;;;;;;4.85;1.83;;;;;;;6.65;71.46;96269.03;3839861;23;20028;-76
2020/12/28 13:57:13;;;;;;;5.22;1.55;;;;;;;6.67;71.63;96272.31;3836113;23;20024;-77
2020/12/28 13:58:45;;;;;;;3.67;1.40;;;;;;;6.68;71.62;96279.25;3840247;23;20021;-78
2020/12/28 14:00:23;;;;;;;3.03;1.33;;;;;;;6.69;71.87;96280.88;3836997;23;20075;-77
2020/12/28 14:01:54;;;;;;;3.85;1.45;;;;;;;6.75;71.75;96275.72;3840204;23;20032;-76
2020/12/28 14:03:26;;;;;;;2.78;1.05;;;;;;;6.81;71.83;96277.53;3837311;23;20025;-77
2020/12/28 14:04:57;;;;;;;2.50;1.00;;;;;;;6.82;72.03;96279.16;3839474;23;20550;-78
2020/12/28 14:06:32;;;;;;;2.67;1.05;;;;;;;6.79;72.10;96274.28;3837521;23;20048;-76
2020/12/28 14:08:04;;;;;;;4.30;1.10;;;;;;;6.83;72.02;96276.31;3840391;23;20025;-77
2020/12/28 14:09:47;;;;;;;3.10;1.20;;;;;;;6.80;72.23;96276.72;3836591;23;20532;-77
2020/12/28 14:11:20;;;;;;;3.33;1.17;;;;;;;6.77;72.14;96282.44;3837199;23;20021;-77
2020/12/28 14:12:52;;;;;;;3.40;1.30;;;;;;;6.77;71.90;96279.00;3840091;23;20025;-78
2020/12/28 14:14:24;;;;;;;3.60;1.50;;;;;;;6.76;71.82;96280.81;3837993;23;20462;-78
2020/12/28 14:15:55;;;;;;;5.60;1.75;;;;;;;6.67;71.74;96277.63;3840978;23;20025;-77
2020/12/28 14:17:44;;;;;;;4.05;1.35;;;;;;;6.71;71.45;96272.69;3837495;23;20049;-79
2020/12/28 14:19:29;;;;;;;5.53;2.22;;;;;;;6.65;71.30;96274.34;3840561;23;20025;-79
2020/12/28 14:20:59;;;;;;;4.55;1.45;;;;;;;6.72;71.37;96274.31;3837822;23;20021;-78
2020/12/28 14:22:47;;;;;;;4.50;1.27;;;;;;;6.68;70.99;96278.41;3840425;23;20025;-78
2020/12/28 14:24:18;;;;;;;3.13;1.17;;;;;;;6.61;71.06;96280.28;3837609;23;20108;-79
2020/12/28 14:25:55;;;;;;;3.65;1.40;;;;;;;6.61;71.18;96273.16;3840741;23;20112;-77
2020/12/28 14:27:32;;;;;;;3.72;1.20;;;;;;;6.59;70.99;96275.22;3837700;23;20040;-79
2020/12/28 14:29:05;;;;;;;3.22;1.30;;;;;;;6.59;71.53;96285.00;3840518;23;20017;-78
2020/12/28 14:30:39;;;;;;;2.17;0.80;;;;;;;6.66;71.17;96280.50;3830667;23;20047;-77
2020/12/28 14:32:16;;;;;;;3.78;1.25;;;;;;;6.63;71.30;96286.22;3840454;23;20021;-78
2020/12/28 14:33:51;;;;;;;3.15;1.13;;;;;;;6.65;71.22;96279.66;3836605;23;20017;-78
2020/12/28 14:35:23;;;;;;;2.92;1.00;;;;;;;6.60;71.27;96279.50;3838571;23;20366;-77
2020/12/28 14:36:54;;;;;;;2.67;1.10;;;;;;;6.61;71.33;96277.63;3840728;23;20032;-76
2020/12/28 14:38:27;;;;;;;5.32;2.10;;;;;;;6.60;71.21;96281.31;3838250;23;20029;-77
2020/12/28 14:39:58;;;;;;;4.15;1.58;;;;;;;6.59;71.26;96291.13;3840922;23;20079;-78
2020/12/28 14:41:36;;;;;;;3.72;1.45;;;;;;;6.58;71.15;96281.53;3835204;23;20032;-78
2020/12/28 14:43:18;;;;;;;4.85;1.88;;;;;;;6.55;71.24;96285.44;3840601;23;20040;-77
2020/12/28 14:44:52;;;;;;;4.22;1.10;;;;;;;6.53;71.14;96290.13;3838107;23;20041;-78
2020/12/28 14:46:28;;;;;;;3.72;1.27;;;;;;;6.60;71.10;96287.47;3840761;23;20025;-77
2020/12/28 14:47:59;;;;;;;3.45;1.55;;;;;;;6.60;71.27;96287.47;3837648;23;20032;-78
2020/12/28 14:49:48;;;;;;;3.97;1.90;;;;;;;6.60;71.14;96286.63;3840870;23;20518;-77
2020/12/28 14:51:23;;;;;;;4.07;1.50;;;;;;;6.63;71.07;96281.69;3837674;23;20021;-77
2020/12/28 14:52:56;;;;;;;4.18;1.70;;;;;;;6.63;71.08;96288.88;3840930;23;20353;-77
2020/12/28 14:54:28;;;;;;;3.78;1.75;;;;;;;6.61;71.07;96283.78;3836868;23;20024;-77
2020/12/28 14:56:16;;;;;;;6.50;1.95;;;;;;;6.59;71.18;96285.81;3840397;23;20032;-77
2020/12/28 14:57:49;;;;;;;3.50;1.35;;;;;;;6.64;70.85;96298.47;3838591;23;20017;-77
2020/12/28 14:59:23;;;;;;;3.47;1.35;;;;;;;6.74;70.57;96290.84;3837746;23;20394;-79
2020/12/28 15:01:02;;;;;;;3.80;1.30;;;;;;;6.70;70.79;96295.78;3841147;23;20025;-77
2020/12/28 15:02:46;;;;;;;3.63;1.67;;;;;;;6.64;70.65;96293.16;3838165;23;20489;-77
2020/12/28 15:04:23;;;;;;;3.92;1.73;;;;;;;6.63;70.59;96302.94;3840604;23;20028;-77
2020/12/28 15:06:23;;;;;;;3.33;1.33;;;;;;;6.63;70.53;96310.91;3838455;23;20115;-77
2020/12/28 15:07:54;;;;;;;3.90;1.70;;;;;;;6.63;70.68;96300.28;3840304;23;20028;-77
2020/12/28 15:09:33;;;;;;;4.13;1.60;;;;;;;6.58;70.72;96310.72;3838094;23;20411;-76
2020/12/28 15:11:07;;;;;;;4.45;1.67;;;;;;;6.56;70.72;96308.28;3840291;23;20025;-77
2020/12/28 15:12:48;;;;;;;4.10;1.85;;;;;;;6.57;70.54;96309.09;3837498;23;20076;-79
2020/12/28 15:14:28;;;;;;;3.75;1.60;;;;;;;6.64;70.48;96315.19;3837457;23;20025;-78
2020/12/28 15:15:58;;;;;;;3.40;1.30;;;;;;;6.69;70.55;96309.25;3840674;23;20025;-76
2020/12/28 15:17:48;;;;;;;3.58;1.13;;;;;;;6.69;70.26;96310.06;3838058;23;20032;-77
2020/12/28 15:19:20;;;;;;;2.80;1.13;;;;;;;6.74;70.51;96313.91;3840371;23;20041;-76
2020/12/28 15:20:55;;;;;;;3.47;1.30;;;;;;;6.77;70.29;96314.31;3838379;23;20024;-77
2020/12/28 15:22:27;;;;;;;3.53;1.30;;;;;;;6.79;70.44;96319.41;3841874;23;20077;-77
2020/12/28 15:23:59;;;;;;;5.22;1.60;;;;;;;6.77;70.26;96316.97;3838619;23;20024;-77
2020/12/28 15:25:33;;;;;;;4.03;1.40;;;;;;;6.80;70.17;96321.06;3841054;23;20032;-78
2020/12/28 15:27:05;;;;;;;3.17;1.30;;;;;;;6.77;70.22;96324.13;3838546;23;20040;-77
2020/12/28 15:28:38;;;;;;;2.63;1.20;;;;;;;6.75;70.15;96320.84;3841642;23;20029;-76
2020/12/28 15:30:23;;;;;;;3.85;1.52;;;;;;;6.74;69.93;96321.88;3837735;23;20025;-79
2020/12/28 15:31:54;;;;;;;4.00;1.52;;;;;;;6.75;70.09;96323.50;3840198;23;20056;-77
2020/12/28 15:33:37;;;;;;;3.85;1.42;;;;;;;6.69;69.63;96336.63;3838683;23;20550;-77
2020/12/28 15:35:08;;;;;;;5.90;1.50;;;;;;;6.76;70.13;96336.56;3840525;23;20029;-76
2020/12/28 15:36:44;;;;;;;3.92;1.90;;;;;;;6.71;69.60;96336.41;3837210;23;20032;-76
2020/12/28 15:38:17;;;;;;;3.63;1.60;;;;;;;6.70;69.70;96327.63;3837687;23;20025;-77
2020/12/28 15:39:48;;;;;;;4.47;1.77;;;;;;;6.70;69.79;96335.59;3839464;23;20071;-77
2020/12/28 15:41:20;;;;;;;3.30;1.30;;;;;;;6.73;69.86;96329.03;3836652;23;20028;-76
2020/12/28 15:42:51;;;;;;;3.67;1.60;;;;;;;6.69;69.89;96333.97;3839805;23;20021;-77
2020/12/28 15:44:22;;;;;;;4.18;1.88;;;;;;;6.71;69.76;96339.84;3837346;23;20036;-80
2020/12/28 15:45:53;;;;;;;4.00;1.63;;;;;;;6.71;69.65;96339.84;3838790;23;20055;-78
2020/12/28 15:47:26;;;;;;;5.18;2.08;;;;;;;6.72;69.69;96336.19;3836514;23;20087;-76